Time;durP1;ratioP1;P1;durP2;ratioP2;P2;SDS_P1;SDS_P2;PMS_P1;PMS_P2;Temp;Humidity;BMP_temperature;BMP_pressure;BME280_temperature;BME280_humidity;BME280_pressure;Samples;Min_cycle;Max_cycle;Signal;HPM_P1;HPM_P2
2022/05/09 00:02:16;;;;;;;1.92;1.55;;;16.40;99.90;;;;;;12728688;23;20227;-85
2022/05/09 00:07:19;;;;;;;2.88;2.00;;;16.80;99.90;;;;;;12753000;23;20184;-85
2022/05/09 00:12:21;;;;;;;4.35;3.20;;;16.50;99.90;;;;;;12729964;23;20488;-85
2022/05/09 00:17:24;;;;;;;11.98;8.70;;;16.30;99.90;;;;;;12730479;23;20227;-85
2022/05/09 00:22:26;;;;;;;7.22;5.28;;;16.50;99.90;;;;;;12730318;23;20173;-85
2022/05/09 00:27:29;;;;;;;17.63;12.85;;;16.10;99.90;;;;;;12730141;23;20189;-85
2022/05/09 00:32:31;;;;;;;14.77;11.63;;;15.40;99.80;;;;;;12728012;23;20181;-86
2022/05/09 00:37:39;;;;;;;2.07;1.87;;;15.30;99.90;;;;;;12735413;23;20177;-85
2022/05/09 00:43:02;;;;;;;6.63;4.40;;;15.60;99.90;;;;;;12727378;23;20184;-85
2022/05/09 00:48:06;;;;;;;19.17;9.93;;;15.80;99.90;;;;;;12729392;23;20200;-86
2022/05/09 00:53:11;;;;;;;7.23;4.37;;;15.80;99.90;;;;;;12731355;23;20196;-85
2022/05/09 00:58:28;;;;;;;12.52;8.95;;;15.90;99.90;;;;;;12727983;23;20184;-85
2022/05/09 01:03:38;;;;;;;7.20;5.60;;;15.40;99.90;;;;;;12746487;23;20168;-85
2022/05/09 01:08:41;;;;;;;8.30;6.80;;;15.70;99.90;;;;;;12731595;23;20189;-85
2022/05/09 01:13:46;;;;;;;2.53;2.20;;;15.80;99.90;;;;;;12729252;23;20567;-86
2022/05/09 01:18:49;;;;;;;6.03;4.43;;;16.00;99.90;;;;;;12746823;23;20547;-85
2022/05/09 01:23:52;;;;;;;1.98;1.77;;;15.40;99.90;;;;;;12726692;23;20191;-85
2022/05/09 01:28:59;;;;;;;16.67;10.68;;;15.50;99.90;;;;;;12730884;23;20192;-86
2022/05/09 01:34:02;;;;;;;8.07;6.10;;;14.90;99.90;;;;;;12706436;23;20212;-86
2022/05/09 01:39:11;;;;;;;7.37;5.80;;;14.90;99.90;;;;;;12732337;23;20176;-86
2022/05/09 01:44:15;;;;;;;8.00;6.20;;;15.00;99.90;;;;;;12748096;23;20227;-85
2022/05/09 01:49:29;;;;;;;11.02;7.75;;;15.40;99.90;;;;;;12732005;23;20200;-86
2022/05/09 01:54:33;;;;;;;12.88;8.68;;;14.60;99.90;;;;;;12772097;23;20172;-85
2022/05/09 01:59:35;;;;;;;3.13;2.73;;;14.70;99.90;;;;;;12732260;23;20566;-86
2022/05/09 02:04:40;;;;;;;4.57;3.33;;;14.70;99.90;;;;;;12731234;23;20172;-86
2022/05/09 02:09:45;;;;;;;11.10;8.10;;;15.00;99.90;;;;;;12749048;23;20440;-86
2022/05/09 02:14:49;;;;;;;4.13;3.07;;;14.70;99.90;;;;;;12747436;23;20169;-86
2022/05/09 02:19:51;;;;;;;5.55;3.72;;;14.90;99.90;;;;;;12731360;23;20243;-86
2022/05/09 02:24:53;;;;;;;2.47;2.27;;;14.80;99.90;;;;;;12772840;23;20478;-86
2022/05/09 02:30:00;;;;;;;6.13;4.93;;;15.20;99.90;;;;;;12731656;23;20235;-86
2022/05/09 02:35:04;;;;;;;10.37;6.40;;;15.30;99.90;;;;;;12728672;23;20243;-85
2022/05/09 02:40:07;;;;;;;2.90;2.50;;;14.40;99.90;;;;;;12731180;23;20543;-86
2022/05/09 02:45:10;;;;;;;6.50;5.47;;;14.30;99.90;;;;;;12730893;23;20173;-86
2022/05/09 02:50:14;;;;;;;5.67;4.67;;;14.00;99.90;;;;;;12731086;23;20196;-86
2022/05/09 02:55:18;;;;;;;9.27;6.90;;;13.70;99.90;;;;;;12731414;23;20161;-86
2022/05/09 03:00:24;;;;;;;8.47;5.97;;;14.30;99.90;;;;;;12730899;23;20173;-86
2022/05/09 03:05:27;;;;;;;3.90;3.20;;;13.70;99.90;;;;;;12747183;23;20173;-86
2022/05/09 03:10:31;;;;;;;3.37;2.67;;;14.20;99.90;;;;;;12731094;23;20235;-86
2022/05/09 03:15:36;;;;;;;4.00;2.85;;;14.40;99.90;;;;;;12730301;23;20188;-86
2022/05/09 03:20:39;;;;;;;6.97;4.27;;;14.00;99.90;;;;;;12730571;23;20275;-85
2022/05/09 03:25:44;;;;;;;7.15;4.10;;;14.60;99.90;;;;;;12728636;23;20725;-86
2022/05/09 03:30:49;;;;;;;4.35;2.75;;;15.00;99.90;;;;;;12730693;23;20702;-85
2022/05/09 03:35:52;;;;;;;8.00;4.47;;;15.30;99.90;;;;;;12730172;23;20490;-84
2022/05/09 03:40:55;;;;;;;3.97;1.98;;;15.40;99.90;;;;;;12747936;23;20165;-85
2022/05/09 03:45:58;;;;;;;6.57;4.10;;;15.40;99.90;;;;;;12727093;23;20219;-85
2022/05/09 03:51:01;;;;;;;2.95;2.55;;;15.50;99.90;;;;;;12752194;23;20196;-85
2022/05/09 03:56:05;;;;;;;2.72;1.98;;;15.00;99.90;;;;;;12727970;23;20168;-83
2022/05/09 04:01:12;;;;;;;3.80;3.00;;;15.20;99.90;;;;;;12752263;23;20495;-83
2022/05/09 04:06:15;;;;;;;3.85;2.78;;;15.30;99.90;;;;;;12729427;23;20184;-84
2022/05/09 04:11:17;;;;;;;5.40;3.63;;;15.40;99.90;;;;;;12753226;23;20647;-84
2022/05/09 04:21:43;;;;;;;6.63;3.50;;;14.80;99.90;;;;;;12740559;23;20172;-84
2022/05/09 04:26:45;;;;;;;6.27;3.20;;;15.50;94.30;;;;;;12727563;23;20219;-84
2022/05/09 04:31:47;;;;;;;5.50;2.70;;;15.60;92.90;;;;;;12746945;23;20176;-84
2022/05/09 04:36:50;;;;;;;5.60;3.27;;;14.70;93.60;;;;;;12729401;23;20176;-84
2022/05/09 04:41:52;;;;;;;3.47;2.20;;;14.60;94.90;;;;;;12726536;23;20251;-84
2022/05/09 04:46:55;;;;;;;4.47;2.70;;;14.40;96.10;;;;;;12729161;23;20187;-84
2022/05/09 04:52:09;;;;;;;5.30;2.90;;;13.90;97.70;;;;;;12725632;23;20204;-84
2022/05/09 04:57:12;;;;;;;9.00;2.63;;;13.90;97.60;;;;;;12746574;23;20169;-84
2022/05/09 05:02:17;;;;;;;2.60;2.03;;;13.40;97.60;;;;;;12729804;23;20172;-84
2022/05/09 05:07:20;;;;;;;5.63;2.67;;;12.50;99.90;;;;;;12740960;23;20500;-84
2022/05/09 05:12:23;;;;;;;9.47;3.30;;;13.00;99.70;;;;;;12730470;23;20177;-84
2022/05/09 05:17:25;;;;;;;4.23;2.87;;;13.40;99.90;;;;;;12730350;23;20184;-84
2022/05/09 05:22:28;;;;;;;4.23;2.17;;;13.10;98.80;;;;;;12730280;23;20191;-84
2022/05/09 05:27:30;;;;;;;3.13;2.40;;;13.70;99.90;;;;;;12733408;23;20575;-84
2022/05/09 05:32:36;;;;;;;5.80;2.80;;;15.10;96.90;;;;;;12756104;23;20246;-84
2022/05/09 05:37:39;;;;;;;2.37;1.90;;;15.10;95.50;;;;;;12730735;23;20251;-84
2022/05/09 05:42:44;;;;;;;5.63;1.90;;;14.60;97.60;;;;;;12750081;23;20702;-84
2022/05/09 05:47:47;;;;;;;3.77;1.90;;;15.10;97.70;;;;;;12732532;23;20514;-84
2022/05/09 05:52:49;;;;;;;2.10;1.80;;;15.60;96.50;;;;;;12736107;23;20565;-84
2022/05/09 05:57:53;;;;;;;1.67;1.50;;;16.00;96.90;;;;;;12750761;23;20218;-84
2022/05/09 06:02:55;;;;;;;2.63;2.20;;;16.30;95.60;;;;;;12730002;23;20199;-83
2022/05/09 06:08:04;;;;;;;2.87;2.00;;;14.90;95.20;;;;;;12738256;23;20188;-84
2022/05/09 06:13:07;;;;;;;5.37;3.20;;;15.20;95.40;;;;;;12731604;23;20165;-83
2022/05/09 06:18:12;;;;;;;6.13;3.43;;;15.10;94.00;;;;;;12731709;23;20223;-84
2022/05/09 06:23:17;;;;;;;2.77;2.17;;;15.30;92.70;;;;;;12730467;23;20239;-84
2022/05/09 06:28:21;;;;;;;4.00;2.83;;;15.20;97.40;;;;;;12728780;23;20193;-84
2022/05/09 06:33:25;;;;;;;2.90;1.70;;;15.90;92.70;;;;;;12730619;23;20544;-84
2022/05/09 06:38:28;;;;;;;6.60;3.90;;;16.70;95.40;;;;;;12730607;23;20169;-84
2022/05/09 06:43:30;;;;;;;5.23;3.50;;;16.40;91.10;;;;;;12754922;23;20192;-84
2022/05/09 06:48:33;;;;;;;4.93;1.70;;;15.40;92.80;;;;;;12749967;23;20539;-84
2022/05/09 06:53:35;;;;;;;3.00;1.63;;;15.90;96.70;;;;;;12729459;23;20678;-84
2022/05/09 06:58:40;;;;;;;2.67;1.97;;;16.70;95.60;;;;;;12731268;23;20176;-85
2022/05/09 07:03:43;;;;;;;3.97;2.33;;;17.50;94.30;;;;;;12750815;23;20646;-83
2022/05/09 07:08:45;;;;;;;4.73;2.57;;;17.50;93.30;;;;;;12735987;23;20215;-83
2022/05/09 07:13:48;;;;;;;5.90;2.40;;;17.40;92.70;;;;;;12731426;23;20168;-84
2022/05/09 07:18:51;;;;;;;5.90;3.27;;;17.30;92.90;;;;;;12729129;23;20196;-85
2022/05/09 07:23:53;;;;;;;6.23;2.33;;;16.70;91.20;;;;;;12729906;23;20176;-85
2022/05/09 07:28:56;;;;;;;1.90;1.30;;;17.50;93.70;;;;;;12729753;23;20184;-85
2022/05/09 07:33:59;;;;;;;1.50;1.40;;;17.30;93.80;;;;;;12730618;23;20504;-85
2022/05/09 07:39:02;;;;;;;5.73;3.50;;;17.40;93.70;;;;;;12728764;23;20188;-84
2022/05/09 07:44:06;;;;;;;6.40;4.13;;;17.90;88.30;;;;;;12727340;23;20563;-86
2022/05/09 07:49:08;;;;;;;4.03;2.50;;;16.30;86.30;;;;;;12730703;23;20196;-84
2022/05/09 07:54:11;;;;;;;4.13;3.17;;;17.00;89.10;;;;;;12729757;23;20169;-84
2022/05/09 07:59:17;;;;;;;7.17;2.30;;;17.60;85.90;;;;;;12729234;23;20247;-84
2022/05/09 08:04:20;;;;;;;6.90;2.90;;;18.20;85.30;;;;;;12729842;23;20172;-84
2022/05/09 08:09:22;;;;;;;11.70;2.93;;;18.30;81.50;;;;;;12729478;23;20596;-84
2022/05/09 08:14:28;;;;;;;5.60;2.60;;;17.00;83.50;;;;;;12746888;23;20196;-84
2022/05/09 08:19:31;;;;;;;5.87;2.50;;;17.00;82.00;;;;;;12726973;23;20811;-83
2022/05/09 08:24:34;;;;;;;5.30;2.93;;;17.00;84.40;;;;;;12753380;23;20173;-83
2022/05/09 08:35:30;;;;;;;5.83;2.73;;;17.60;84.80;;;;;;12760922;23;20270;-94
2022/05/09 08:57:54;;;;;;;8.60;1.97;;;19.00;79.70;;;;;;12789909;23;20246;-84
2022/05/09 09:03:28;;;;;;;8.53;1.87;;;19.10;79.40;;;;;;12807314;23;20172;-84
2022/05/09 09:09:09;;;;;;;4.20;1.90;;;18.90;79.30;;;;;;12789180;23;20213;-85
2022/05/09 09:14:11;;;;;;;3.75;2.38;;;19.00;73.10;;;;;;12814601;23;20164;-84
2022/05/09 09:19:38;;;;;;;3.97;1.40;;;18.40;75.00;;;;;;12788573;23;20179;-84
2022/05/09 09:24:59;;;;;;;3.50;1.33;;;19.30;77.70;;;;;;12790705;23;20204;-84
2022/05/09 09:30:11;;;;;;;3.25;1.75;;;18.60;76.40;;;;;;12790640;23;20220;-85
2022/05/09 09:35:35;;;;;;;3.83;1.98;;;18.80;76.10;;;;;;12788223;23;20578;-84
2022/05/09 09:40:42;;;;;;;3.13;1.50;;;19.40;73.80;;;;;;12788697;23;20697;-84
2022/05/09 09:45:50;;;;;;;2.13;1.40;;;18.90;71.10;;;;;;12790229;23;20172;-85
2022/05/09 09:51:10;;;;;;;2.60;1.23;;;18.80;81.60;;;;;;12808047;23;20813;-84
2022/05/09 09:56:34;;;;;;;3.10;1.63;;;19.00;80.60;;;;;;12800479;23;20230;-85
2022/05/09 10:01:37;;;;;;;2.33;1.48;;;18.20;70.80;;;;;;12792869;23;20163;-84
2022/05/09 10:07:03;;;;;;;1.90;1.23;;;18.90;80.90;;;;;;12794286;23;20222;-85
2022/05/09 10:12:26;;;;;;;1.42;1.25;;;20.10;79.80;;;;;;12791552;23;20200;-85
2022/05/09 10:17:32;;;;;;;1.60;1.13;;;19.20;77.90;;;;;;12790846;23;20180;-85
2022/05/09 10:28:21;;;;;;;1.88;0.82;;;20.30;78.70;;;;;;12809635;23;20223;-85
2022/05/09 10:33:31;;;;;;;2.10;1.20;;;20.50;65.50;;;;;;12810118;23;20222;-85
2022/05/09 10:38:41;;;;;;;2.00;0.98;;;20.30;77.50;;;;;;12821606;23;20259;-84
2022/05/09 10:44:29;;;;;;;2.17;0.80;;;20.10;68.00;;;;;;12792770;23;20176;-85
2022/05/09 10:50:01;;;;;;;2.72;1.05;;;20.50;78.00;;;;;;12544751;23;20253;-85
2022/05/09 10:55:16;;;;;;;1.58;1.00;;;20.40;76.90;;;;;;12518637;23;20210;-85
2022/05/09 11:00:24;;;;;;;1.20;0.95;;;20.20;75.40;;;;;;12542690;23;20185;-84
2022/05/09 11:05:36;;;;;;;1.85;1.27;;;20.40;76.90;;;;;;12495475;23;20190;-85
2022/05/09 11:11:05;;;;;;;2.65;1.30;;;20.40;73.40;;;;;;12556982;23;20230;-85
2022/05/09 11:16:28;;;;;;;1.92;0.93;;;19.70;70.90;;;;;;12560219;23;20570;-85
2022/05/09 11:21:45;;;;;;;1.17;0.90;;;19.70;61.10;;;;;;12532476;23;20230;-85
2022/05/09 11:27:10;;;;;;;2.78;1.10;;;19.90;63.20;;;;;;12784502;23;20206;-84
2022/05/09 11:32:46;;;;;;;1.40;1.00;;;19.40;62.90;;;;;;12788769;23;20183;-84
2022/05/09 11:37:57;;;;;;;2.65;1.40;;;19.90;76.90;;;;;;12789871;23;20241;-84
2022/05/09 11:43:39;;;;;;;0.85;0.80;;;20.20;73.30;;;;;;12833291;23;20554;-84
2022/05/09 11:48:44;;;;;;;2.55;1.02;;;20.10;63.50;;;;;;12807973;23;20258;-84
2022/05/09 11:53:56;;;;;;;1.02;0.93;;;20.60;76.40;;;;;;12815144;23;20203;-84
2022/05/09 11:58:59;;;;;;;3.15;1.23;;;20.30;75.00;;;;;;12808963;23;20164;-84
2022/05/09 12:04:02;;;;;;;1.10;0.98;;;20.50;68.20;;;;;;12792622;23;20210;-84
2022/05/09 12:09:09;;;;;;;1.30;0.93;;;20.60;74.90;;;;;;12815303;23;20254;-84
2022/05/09 12:14:48;;;;;;;2.00;1.02;;;20.50;62.60;;;;;;12794767;23;20191;-85
2022/05/09 12:19:52;;;;;;;1.13;0.93;;;19.80;59.10;;;;;;12798580;23;20179;-96
2022/05/09 12:24:56;;;;;;;5.03;1.25;;;19.50;75.30;;;;;;12821951;23;20180;-95
2022/05/09 12:29:59;;;;;;;2.03;1.00;;;19.80;61.30;;;;;;12811744;23;20262;-96
2022/05/09 12:35:07;;;;;;;2.33;1.33;;;19.40;62.40;;;;;;12812169;23;20179;-96
2022/05/09 12:40:29;;;;;;;2.20;1.27;;;19.50;68.20;;;;;;12811506;23;20175;-96
2022/05/09 12:45:33;;;;;;;2.17;1.48;;;19.60;60.60;;;;;;12806267;23;20183;-96
2022/05/09 12:50:39;;;;;;;2.58;1.10;;;19.80;61.60;;;;;;12805446;23;20246;-96
2022/05/09 12:55:52;;;;;;;4.75;1.40;;;19.80;57.90;;;;;;12801903;23;20266;-96
2022/05/09 13:01:21;;;;;;;2.00;1.80;;;19.60;55.40;;;;;;12801094;23;20230;-96
2022/05/09 13:07:00;;;;;;;1.75;1.30;;;19.80;66.80;;;;;;12801661;23;20183;-94
2022/05/09 13:12:05;;;;;;;1.35;0.98;;;19.80;67.60;;;;;;12777303;23;20228;-96
2022/05/09 13:17:15;;;;;;;1.58;1.00;;;20.00;65.40;;;;;;12785703;23;20192;-95
2022/05/09 13:22:28;;;;;;;1.60;1.02;;;19.80;62.50;;;;;;12819736;23;20210;-96
2022/05/09 13:27:32;;;;;;;1.48;1.17;;;19.90;65.20;;;;;;12822819;23;20574;-96
2022/05/09 13:32:35;;;;;;;4.18;1.20;;;19.80;62.40;;;;;;12821445;23;20285;-95
2022/05/09 13:37:39;;;;;;;6.72;1.42;;;19.80;60.30;;;;;;12823513;23;20188;-94
2022/05/09 13:42:45;;;;;;;2.95;1.00;;;19.70;54.50;;;;;;12802365;23;20184;-94
2022/05/09 13:47:55;;;;;;;2.10;1.38;;;20.00;53.40;;;;;;12800981;23;20180;-94
2022/05/09 13:53:03;;;;;;;1.58;1.30;;;20.30;67.30;;;;;;12799949;23;20203;-93
2022/05/09 13:58:07;;;;;;;2.05;1.20;;;20.50;66.90;;;;;;12800836;23;20180;-94
2022/05/09 14:03:34;;;;;;;3.08;1.48;;;20.60;59.10;;;;;;12799810;23;20175;-94
2022/05/09 14:08:38;;;;;;;4.15;1.20;;;20.80;54.80;;;;;;12803754;23;20230;-93
2022/05/09 14:13:49;;;;;;;2.42;1.27;;;20.90;66.30;;;;;;12797895;23;20176;-94
2022/05/09 14:19:13;;;;;;;11.93;1.65;;;20.90;51.80;;;;;;12794726;23;20238;-81
2022/05/09 14:29:36;;;;;;;2.65;1.48;;;20.90;62.40;;;;;;12795917;23;20172;-81
2022/05/09 14:30:03;;;;;;;9.75;1.73;;;21.70;58.80;;;;;;12794070;23;20263;-81
2022/05/09 14:35:08;;;;;;;4.53;1.67;;;22.30;58.90;;;;;;12810685;23;20585;-81
2022/05/09 14:40:16;;;;;;;6.50;1.38;;;22.60;60.10;;;;;;12810358;23;20214;-81
2022/05/09 14:45:18;;;;;;;11.88;1.95;;;22.90;56.30;;;;;;12794092;23;20168;-81
2022/05/09 14:50:30;;;;;;;11.30;2.17;;;22.90;60.50;;;;;;12793724;23;20217;-80
2022/05/09 15:01:00;;;;;;;7.55;1.25;;;22.50;47.30;;;;;;12792234;23;20183;-81
2022/05/09 15:06:04;;;;;;;7.97;1.50;;;20.60;51.70;;;;;;12790313;23;20218;-81
2022/05/09 15:11:27;;;;;;;2.67;1.05;;;21.10;55.00;;;;;;12809432;23;20187;-81
2022/05/09 15:16:35;;;;;;;1.63;1.10;;;19.70;51.00;;;;;;12810326;23;20558;-81
2022/05/09 15:21:38;;;;;;;2.45;1.17;;;19.40;52.20;;;;;;12791671;23;20171;-81
2022/05/09 15:26:43;;;;;;;4.28;1.05;;;19.40;51.90;;;;;;12816270;23;20172;-81
2022/05/09 15:31:46;;;;;;;2.03;1.20;;;19.30;52.20;;;;;;12792888;23;20588;-81
2022/05/09 15:36:49;;;;;;;1.25;1.10;;;19.30;52.70;;;;;;12765730;23;20672;-81
2022/05/09 15:41:53;;;;;;;4.63;1.10;;;19.00;49.60;;;;;;12792923;23;20503;-81
2022/05/09 15:46:56;;;;;;;5.43;1.52;;;19.90;54.80;;;;;;12816118;23;20514;-81
2022/05/09 15:51:59;;;;;;;1.40;0.98;;;20.40;49.90;;;;;;12789302;23;20254;-81
2022/05/09 15:57:03;;;;;;;5.22;1.52;;;19.50;65.50;;;;;;12792616;23;20246;-81
2022/05/09 16:02:08;;;;;;;2.80;1.20;;;19.70;58.40;;;;;;12792317;23;20172;-82
2022/05/09 16:12:32;;;;;;;5.78;1.30;;;19.60;51.20;;;;;;12809436;23;20192;-81
2022/05/09 16:17:35;;;;;;;3.25;1.00;;;20.10;55.80;;;;;;12791591;23;20168;-81
2022/05/09 16:22:38;;;;;;;2.55;1.23;;;20.10;52.20;;;;;;12790849;23;20176;-81
2022/05/09 16:27:43;;;;;;;5.72;0.73;;;20.00;56.40;;;;;;12792448;23;20167;-81
2022/05/09 16:32:46;;;;;;;1.83;0.95;;;19.30;51.30;;;;;;12815638;23;20203;-81
2022/05/09 16:37:50;;;;;;;1.75;0.90;;;19.30;52.80;;;;;;12815298;23;20191;-81
2022/05/09 16:42:52;;;;;;;13.80;1.80;;;19.40;64.20;;;;;;12814181;23;20184;-81
2022/05/09 16:47:55;;;;;;;5.63;1.13;;;19.10;52.30;;;;;;12791781;23;20503;-81
2022/05/09 16:52:57;;;;;;;15.23;1.27;;;18.70;51.70;;;;;;12791541;23;20188;-81
2022/05/09 16:58:02;;;;;;;1.85;0.93;;;18.30;52.80;;;;;;12792282;23;20639;-81
2022/05/09 17:03:04;;;;;;;1.45;0.73;;;18.70;56.50;;;;;;12795317;23;20171;-81
2022/05/09 17:08:07;;;;;;;6.95;1.50;;;18.00;52.40;;;;;;12795353;23;20175;-81
2022/05/09 17:13:15;;;;;;;1.58;1.30;;;17.80;53.70;;;;;;12795340;23;20187;-81
2022/05/09 17:18:18;;;;;;;1.20;0.80;;;19.20;67.20;;;;;;12812834;23;20167;-81
2022/05/09 17:23:21;;;;;;;1.50;1.20;;;20.50;64.80;;;;;;12792111;23;20226;-81
2022/05/09 17:28:25;;;;;;;2.75;1.00;;;21.50;64.00;;;;;;12789528;23;20168;-81
2022/05/09 17:33:29;;;;;;;3.00;1.25;;;21.60;63.80;;;;;;12789731;23;20188;-81
2022/05/09 17:38:33;;;;;;;8.32;1.48;;;21.80;63.60;;;;;;12821280;23;20242;-81
2022/05/09 17:43:35;;;;;;;0.80;0.70;;;22.00;60.40;;;;;;12793281;23;20168;-81
2022/05/09 17:48:38;;;;;;;3.42;1.13;;;21.80;63.30;;;;;;12789817;23;20168;-81
2022/05/09 17:53:40;;;;;;;3.47;1.83;;;22.10;62.90;;;;;;12790847;23;20195;-80
2022/05/09 17:58:46;;;;;;;3.65;1.83;;;17.40;55.50;;;;;;12813963;23;20503;-80
2022/05/09 18:03:49;;;;;;;2.60;1.60;;;15.90;58.30;;;;;;12808151;23;20599;-80
2022/05/09 18:08:52;;;;;;;214.60;117.80;;;15.30;60.80;;;;;;12787593;23;20226;-80
2022/05/09 18:13:56;;;;;;;232.97;125.83;;;14.80;62.20;;;;;;12763526;23;20200;-80
2022/05/09 18:19:00;;;;;;;64.50;31.33;;;14.20;65.10;;;;;;12786751;23;20176;-81
2022/05/09 18:24:15;;;;;;;7.23;3.40;;;13.20;68.20;;;;;;12790529;23;20697;-81
2022/05/09 18:29:18;;;;;;;7.30;2.70;;;12.90;69.50;;;;;;12808773;23;20634;-81
2022/05/09 18:34:27;;;;;;;17.60;6.17;;;12.60;72.40;;;;;;12789974;23;20164;-84
2022/05/09 18:39:30;;;;;;;10.77;2.30;;;12.60;84.60;;;;;;12796750;23;20238;-83
2022/05/09 18:44:34;;;;;;;15.57;3.03;;;12.50;73.60;;;;;;12817690;23;20173;-83
2022/05/09 18:55:19;;;;;;;26.50;10.43;;;15.20;71.20;;;;;;12663710;23;20205;-83
2022/05/09 19:00:27;;;;;;;13.73;7.13;;;15.90;68.80;;;;;;12665247;23;20212;-83
2022/05/09 19:05:36;;;;;;;7.80;3.80;;;16.20;67.30;;;;;;12665350;23;20667;-83
2022/05/09 19:10:46;;;;;;;17.13;3.57;;;16.20;67.20;;;;;;12639238;23;20193;-83
2022/05/09 19:15:51;;;;;;;9.53;3.30;;;16.30;67.20;;;;;;12680771;23;20177;-80
2022/05/09 19:20:55;;;;;;;5.97;3.20;;;14.60;68.20;;;;;;12662891;23;20181;-80
2022/05/09 19:25:58;;;;;;;5.80;2.30;;;10.90;84.70;;;;;;12664349;23;20253;-81
2022/05/09 19:31:03;;;;;;;5.57;3.23;;;;;;;;;;12745080;23;20227;-81
2022/05/09 19:36:06;;;;;;;10.60;4.57;;;9.90;92.70;;;;;;12791538;23;20554;-80
2022/05/09 19:41:26;;;;;;;6.77;3.20;;;13.90;93.80;;;;;;12792930;23;20163;-81
2022/05/09 19:46:31;;;;;;;5.77;2.70;;;10.50;99.90;;;;;;12808110;23;20233;-81
2022/05/09 19:51:34;;;;;;;9.03;2.87;;;11.70;99.40;;;;;;12792164;23;20523;-81
2022/05/09 19:56:38;;;;;;;10.23;2.80;;;13.20;98.20;;;;;;12790917;23;20199;-81
2022/05/09 20:01:41;;;;;;;10.53;2.87;;;14.10;95.90;;;;;;12815480;23;20233;-81
2022/05/09 20:06:43;;;;;;;7.50;2.63;;;14.20;93.00;;;;;;12791593;23;20782;-80
2022/05/09 20:11:46;;;;;;;6.30;2.60;;;14.30;94.60;;;;;;12788871;23;20234;-81
2022/05/09 20:17:08;;;;;;;4.13;2.60;;;14.80;93.00;;;;;;12806503;23;20222;-81
2022/05/09 20:22:13;;;;;;;9.65;3.33;;;14.80;92.70;;;;;;12813132;23;20214;-80
2022/05/09 20:32:37;;;;;;;6.53;2.65;;;15.30;91.60;;;;;;12790778;23;20277;-81
2022/05/09 20:37:48;;;;;;;6.95;2.70;;;15.60;91.50;;;;;;12791437;23;20484;-80
2022/05/09 20:42:51;;;;;;;5.85;2.03;;;15.70;90.70;;;;;;12788919;23;20911;-80
2022/05/09 20:47:54;;;;;;;4.78;2.25;;;15.90;90.10;;;;;;12790805;23;20640;-80
2022/05/09 20:52:56;;;;;;;7.28;3.10;;;15.80;88.00;;;;;;12789079;23;20203;-80
2022/05/09 20:58:01;;;;;;;5.18;2.00;;;15.10;86.30;;;;;;12788147;23;20211;-80
2022/05/09 21:03:04;;;;;;;9.80;3.35;;;15.70;91.30;;;;;;12789788;23;20184;-80
2022/05/09 21:08:10;;;;;;;9.88;3.53;;;15.30;85.30;;;;;;12801256;23;20176;-80
2022/05/09 21:13:12;;;;;;;8.10;4.57;;;15.90;89.90;;;;;;12788584;23;20276;-80
2022/05/09 21:18:15;;;;;;;10.73;3.28;;;15.70;84.00;;;;;;12790935;23;20203;-80
2022/05/09 21:23:19;;;;;;;7.50;2.63;;;16.10;90.00;;;;;;12791845;23;20172;-80
2022/05/09 21:28:25;;;;;;;6.22;3.00;;;16.00;89.60;;;;;;12790624;23;20168;-80
2022/05/09 21:33:28;;;;;;;3.72;2.47;;;16.30;88.60;;;;;;12788821;23;20192;-80
2022/05/09 21:44:12;;;;;;;5.13;3.17;;;16.20;86.50;;;;;;12810275;23;20215;-81
2022/05/09 21:49:16;;;;;;;5.30;2.78;;;16.40;87.00;;;;;;12833918;23;20168;-80
2022/05/09 21:54:26;;;;;;;7.80;3.37;;;16.70;87.00;;;;;;12794120;23;20196;-80
2022/05/09 21:59:31;;;;;;;11.13;3.60;;;10.40;99.90;;;;;;12812320;23;20167;-80
2022/05/09 22:04:35;;;;;;;4.70;2.63;;;12.70;99.90;;;;;;12795072;23;20171;-80
2022/05/09 22:09:47;;;;;;;6.47;3.77;;;14.30;99.00;;;;;;12798846;23;20488;-81
2022/05/09 22:14:50;;;;;;;7.53;4.90;;;15.30;95.90;;;;;;12810955;23;20242;-81
2022/05/09 22:19:52;;;;;;;5.30;3.72;;;15.20;94.00;;;;;;12794258;23;20164;-80
2022/05/09 22:24:55;;;;;;;7.93;3.60;;;14.80;95.00;;;;;;12793307;23;20172;-80
2022/05/09 22:29:59;;;;;;;9.83;3.93;;;14.50;96.20;;;;;;12794040;23;20172;-80
2022/05/09 22:35:02;;;;;;;4.18;2.30;;;15.10;95.60;;;;;;12791521;23;20180;-80
2022/05/09 22:40:09;;;;;;;4.97;3.42;;;15.60;94.80;;;;;;12793535;23;20510;-80
2022/05/09 22:45:29;;;;;;;3.97;3.28;;;15.80;93.70;;;;;;12811971;23;20223;-80
2022/05/09 22:50:32;;;;;;;5.97;3.40;;;16.00;92.60;;;;;;12812674;23;20187;-80
2022/05/09 22:55:35;;;;;;;3.42;2.72;;;16.00;92.60;;;;;;12791357;23;20679;-80
2022/05/09 23:00:38;;;;;;;8.70;6.00;;;16.10;92.50;;;;;;12792042;23;20545;-80
2022/05/09 23:05:41;;;;;;;5.88;4.05;;;15.50;91.30;;;;;;12793199;23;20180;-80
2022/05/09 23:10:45;;;;;;;4.18;2.65;;;15.50;92.30;;;;;;12790918;23;20584;-80
2022/05/09 23:15:47;;;;;;;3.70;2.60;;;15.80;92.80;;;;;;12793582;23;20518;-80
2022/05/09 23:20:50;;;;;;;3.97;3.08;;;16.10;92.50;;;;;;12788327;23;20183;-80
2022/05/09 23:25:55;;;;;;;5.22;3.08;;;16.10;91.90;;;;;;12805720;23;20172;-80
2022/05/09 23:31:01;;;;;;;3.65;2.60;;;16.40;91.40;;;;;;12799039;23;20238;-80
2022/05/09 23:36:06;;;;;;;8.10;4.05;;;16.60;91.10;;;;;;12803737;23;20164;-83
2022/05/09 23:41:15;;;;;;;7.47;5.18;;;16.10;90.40;;;;;;12798744;23;20172;-80
2022/05/09 23:46:19;;;;;;;4.75;3.47;;;15.70;91.10;;;;;;12797351;23;20572;-81
2022/05/09 23:51:21;;;;;;;4.30;3.20;;;15.90;91.90;;;;;;12780046;23;20285;-80
2022/05/09 23:56:24;;;;;;;6.32;2.67;;;16.00;91.60;;;;;;12779481;23;20270;-81
